createdAt,value
2018-12-30T00:00:08.847Z,101276.12
2018-12-30T00:02:37.999Z,101275.13
2018-12-30T00:05:07.408Z,101270.34
2018-12-30T00:07:36.936Z,101263.11
2018-12-30T00:10:06.506Z,101256.84
2018-12-30T00:12:35.673Z,101257.02
2018-12-30T00:15:05.013Z,101261.42
2018-12-30T00:17:34.165Z,101256.00
2018-12-30T00:20:03.850Z,101268.51
2018-12-30T00:22:33.000Z,101262.57
2018-12-30T00:25:02.146Z,101266.18
2018-12-30T00:27:31.282Z,101262.89
2018-12-30T00:30:00.412Z,101259.58
2018-12-30T00:32:29.574Z,101265.83
2018-12-30T00:34:58.732Z,101269.75
2018-12-30T00:37:27.893Z,101260.23
2018-12-30T00:39:57.023Z,101268.26
2018-12-30T00:42:26.153Z,101263.17
2018-12-30T00:44:55.585Z,101261.70
2018-12-30T00:47:24.716Z,101260.84
2018-12-30T00:49:53.861Z,101254.78
2018-12-30T00:52:23.002Z,101254.27
2018-12-30T00:54:52.147Z,101262.47
2018-12-30T00:57:21.282Z,101256.91
2018-12-30T00:59:50.443Z,101261.98
2018-12-30T01:02:19.572Z,101259.98
2018-12-30T01:04:48.716Z,101265.91
2018-12-30T01:07:17.840Z,101270.70
2018-12-30T01:09:46.982Z,101272.51
2018-12-30T01:12:16.371Z,101283.86
2018-12-30T01:14:45.522Z,101287.95
2018-12-30T01:17:14.659Z,101299.62
2018-12-30T01:19:43.803Z,101296.81
2018-12-30T01:22:12.938Z,101297.48
2018-12-30T01:24:42.084Z,101298.28
2018-12-30T01:27:11.221Z,101298.62
2018-12-30T01:29:40.359Z,101296.95
2018-12-30T01:32:09.503Z,101306.81
2018-12-30T01:34:38.653Z,101313.06
2018-12-30T01:37:07.796Z,101311.42
2018-12-30T01:39:36.944Z,101321.09
2018-12-30T01:42:06.119Z,101328.51
2018-12-30T01:44:35.281Z,101334.42
2018-12-30T01:47:04.422Z,101333.77
2018-12-30T01:49:33.562Z,101338.05
2018-12-30T01:52:02.711Z,101340.02
2018-12-30T01:54:31.866Z,101340.33
2018-12-30T01:57:00.990Z,101334.38
2018-12-30T01:59:30.136Z,101345.09
2018-12-30T02:01:59.262Z,101347.71
2018-12-30T02:04:28.699Z,101336.67
2018-12-30T02:06:57.822Z,101343.91
2018-12-30T02:09:26.970Z,101352.63
2018-12-30T02:11:56.099Z,101347.35
2018-12-30T02:14:25.237Z,101354.92
2018-12-30T02:16:54.751Z,101353.11
2018-12-30T02:19:23.888Z,101352.77
2018-12-30T02:21:53.047Z,101356.22
2018-12-30T02:24:25.156Z,101355.71
2018-12-30T02:26:54.303Z,101349.97
2018-12-30T02:29:23.436Z,101352.25
2018-12-30T02:31:52.578Z,101353.58
2018-12-30T02:34:21.721Z,101360.99
2018-12-30T02:36:50.849Z,101364.45
2018-12-30T02:39:19.988Z,101358.00
2018-12-30T02:41:49.141Z,101358.98
2018-12-30T02:44:18.289Z,101362.95
2018-12-30T02:46:47.442Z,101361.28
2018-12-30T02:49:16.584Z,101360.30
2018-12-30T02:51:50.292Z,101354.70
2018-12-30T02:54:16.583Z,101366.02
2018-12-30T02:56:45.922Z,101367.67
2018-12-30T02:59:15.105Z,101362.25
2018-12-30T03:01:44.260Z,101359.91
2018-12-30T03:04:13.766Z,101361.39
2018-12-30T03:06:42.919Z,101356.11
2018-12-30T03:09:12.056Z,101355.13
2018-12-30T03:11:41.202Z,101359.89
2018-12-30T03:14:10.326Z,101359.06
2018-12-30T03:16:39.481Z,101358.71
2018-12-30T03:19:08.611Z,101362.31
2018-12-30T03:21:37.758Z,101369.58
2018-12-30T03:24:06.884Z,101363.98
2018-12-30T03:26:36.041Z,101363.63
2018-12-30T03:29:05.176Z,101359.50
2018-12-30T03:31:34.325Z,101361.64
2018-12-30T03:34:03.453Z,101358.18
2018-12-30T03:36:32.615Z,101357.52
2018-12-30T03:39:01.851Z,101355.53
2018-12-30T03:41:30.996Z,101360.97
2018-12-30T03:44:00.119Z,101362.30
2018-12-30T03:46:29.254Z,101366.09
2018-12-30T03:48:58.403Z,101369.69
2018-12-30T03:51:27.539Z,101369.84
2018-12-30T03:53:56.679Z,101377.27
2018-12-30T03:56:25.830Z,101380.40
2018-12-30T03:58:54.968Z,101377.75
2018-12-30T04:01:24.110Z,101375.09
2018-12-30T04:03:53.252Z,101387.29
2018-12-30T04:06:22.424Z,101388.75
2018-12-30T04:08:51.563Z,101390.90
2018-12-30T04:11:20.713Z,101392.20
2018-12-30T04:13:49.849Z,101389.73
2018-12-30T04:16:18.996Z,101392.86
2018-12-30T04:18:48.123Z,101390.23
2018-12-30T04:21:17.259Z,101390.05
2018-12-30T04:23:46.406Z,101384.12
2018-12-30T04:26:15.526Z,101386.23
2018-12-30T04:28:44.668Z,101394.48
2018-12-30T04:31:13.797Z,101393.18
2018-12-30T04:33:42.957Z,101400.09
2018-12-30T04:36:12.087Z,101390.86
2018-12-30T04:38:41.242Z,101393.16
2018-12-30T04:41:10.372Z,101390.53
2018-12-30T04:43:39.534Z,101387.06
2018-12-30T04:46:08.664Z,101394.80
2018-12-30T04:48:37.829Z,101396.91
2018-12-30T04:51:06.967Z,101399.39
2018-12-30T04:53:36.111Z,101403.48
2018-12-30T04:56:05.244Z,101412.56
2018-12-30T04:58:34.459Z,101413.53
2018-12-30T05:01:03.615Z,101413.36
2018-12-30T05:03:32.758Z,101419.30
2018-12-30T05:06:01.896Z,101427.05
2018-12-30T05:08:31.050Z,101440.39
2018-12-30T05:11:00.173Z,101438.58
2018-12-30T05:13:29.338Z,101433.44
2018-12-30T05:15:58.478Z,101446.95
2018-12-30T05:18:27.635Z,101443.84
2018-12-30T05:20:56.767Z,101453.88
2018-12-30T05:23:25.916Z,101454.20
2018-12-30T05:25:55.055Z,101452.70
2018-12-30T05:28:24.199Z,101458.64
2018-12-30T05:30:53.328Z,101459.28
2018-12-30T05:33:22.481Z,101471.49
2018-12-30T05:35:51.615Z,101478.25
2018-12-30T05:38:20.764Z,101480.72
2018-12-30T05:40:49.897Z,101479.05
2018-12-30T05:43:19.052Z,101479.38
2018-12-30T05:45:48.185Z,101483.64
2018-12-30T05:48:17.337Z,101492.56
2018-12-30T05:50:46.452Z,101499.31
2018-12-30T05:53:15.600Z,101504.41
2018-12-30T05:55:44.760Z,101507.71
2018-12-30T05:58:13.909Z,101507.20
2018-12-30T06:00:43.042Z,101513.29
2018-12-30T06:03:12.184Z,101511.34
2018-12-30T06:05:41.314Z,101517.91
2018-12-30T06:08:10.470Z,101519.55
2018-12-30T06:10:39.610Z,101517.91
2018-12-30T06:13:08.757Z,101528.77
2018-12-30T06:15:37.910Z,101526.81
2018-12-30T06:18:07.057Z,101533.06
2018-12-30T06:20:36.186Z,101542.77
2018-12-30T06:23:05.343Z,101543.12
2018-12-30T06:25:34.496Z,101543.93
2018-12-30T06:28:03.907Z,101548.20
2018-12-30T06:30:33.026Z,101546.38
2018-12-30T06:33:02.182Z,101559.73
2018-12-30T06:35:31.296Z,101564.84
2018-12-30T06:38:00.429Z,101577.38
2018-12-30T06:40:29.558Z,101586.09
2018-12-30T06:42:58.697Z,101592.50
2018-12-30T06:45:27.830Z,101594.99
2018-12-30T06:47:56.998Z,101593.19
2018-12-30T06:50:26.118Z,101597.62
2018-12-30T06:52:57.785Z,101602.91
2018-12-30T06:55:26.144Z,101609.83
2018-12-30T06:57:55.333Z,101622.03
2018-12-30T07:00:24.463Z,101618.40
2018-12-30T07:02:53.632Z,101619.87
2018-12-30T07:05:22.767Z,101627.13
2018-12-30T07:07:51.917Z,101628.49
2018-12-30T07:10:21.054Z,101631.95
2018-12-30T07:12:50.203Z,101627.83
2018-12-30T07:15:19.325Z,101631.77
2018-12-30T07:17:48.462Z,101630.14
2018-12-30T07:20:17.620Z,101633.10
2018-12-30T07:22:46.746Z,101630.29
2018-12-30T07:25:15.895Z,101628.97
2018-12-30T07:27:45.028Z,101625.34
2018-12-30T07:30:14.182Z,101626.83
2018-12-30T07:32:43.380Z,101623.03
2018-12-30T07:35:12.526Z,101627.80
2018-12-30T07:37:41.658Z,101619.23
2018-12-30T07:40:10.800Z,101630.12
2018-12-30T07:42:39.944Z,101621.22
2018-12-30T07:45:09.086Z,101624.66
2018-12-30T07:47:38.210Z,101619.38
2018-12-30T07:50:08.119Z,101629.44
2018-12-30T07:52:37.255Z,101624.48
2018-12-30T07:55:06.399Z,101632.06
2018-12-30T07:57:35.526Z,101637.99
2018-12-30T08:00:07.073Z,101646.89
2018-12-30T08:02:36.207Z,101653.66
2018-12-30T08:05:05.621Z,101654.98
2018-12-30T08:07:34.758Z,101660.73
2018-12-30T08:10:03.900Z,101674.95
2018-12-30T08:12:33.046Z,101680.71
2018-12-30T08:15:02.187Z,101698.19
2018-12-30T08:17:31.325Z,101700.48
2018-12-30T08:20:00.482Z,101705.42
2018-12-30T08:22:29.616Z,101706.88
2018-12-30T08:24:58.766Z,101717.95
2018-12-30T08:27:27.891Z,101724.38
2018-12-30T08:29:57.125Z,101730.81
2018-12-30T08:32:26.258Z,101728.48
2018-12-30T08:34:55.401Z,101723.38
2018-12-30T08:37:24.525Z,101728.80
2018-12-30T08:39:53.689Z,101718.42
2018-12-30T08:42:22.813Z,101717.75
2018-12-30T08:44:51.978Z,101714.78
2018-12-30T08:47:21.111Z,101719.72
2018-12-30T08:49:50.274Z,101721.03
2018-12-30T08:52:19.407Z,101725.00
2018-12-30T08:54:48.565Z,101707.69
2018-12-30T08:57:17.684Z,101714.91
2018-12-30T08:59:46.848Z,101722.17
2018-12-30T09:02:15.977Z,101741.33
2018-12-30T09:04:45.115Z,101747.08
2018-12-30T09:07:14.248Z,101747.55
2018-12-30T09:09:43.574Z,101757.64
2018-12-30T09:12:12.711Z,101747.41
2018-12-30T09:14:41.871Z,101747.89
2018-12-30T09:17:11.003Z,101744.42
2018-12-30T09:19:40.149Z,101753.98
2018-12-30T09:22:09.286Z,101756.95
2018-12-30T09:24:38.436Z,101764.03
2018-12-30T09:27:07.565Z,101760.09
2018-12-30T09:29:36.715Z,101764.19
2018-12-30T09:32:05.856Z,101773.12
2018-12-30T09:34:35.012Z,101775.89
2018-12-30T09:37:04.142Z,101782.50
2018-12-30T09:39:33.281Z,101776.08
2018-12-30T09:42:02.435Z,101784.65
2018-12-30T09:44:31.569Z,101779.53
2018-12-30T09:47:00.773Z,101775.55
2018-12-30T09:49:29.941Z,101772.91
2018-12-30T09:51:59.081Z,101782.97
2018-12-30T09:54:28.202Z,101781.31
2018-12-30T09:56:57.340Z,101780.50
2018-12-30T09:59:26.484Z,101781.14
2018-12-30T10:01:55.664Z,101778.15
2018-12-30T10:04:24.792Z,101784.27
2018-12-30T10:06:53.933Z,101788.53
2018-12-30T10:09:23.063Z,101785.09
2018-12-30T10:11:52.203Z,101791.83
2018-12-30T10:14:21.325Z,101784.06
2018-12-30T10:16:50.465Z,101782.07
2018-12-30T10:19:19.583Z,101779.59
2018-12-30T10:21:48.728Z,101782.06
2018-12-30T10:24:17.858Z,101782.39
2018-12-30T10:26:47.012Z,101783.71
2018-12-30T10:29:16.148Z,101781.05
2018-12-30T10:31:45.287Z,101791.78
2018-12-30T10:34:14.412Z,101789.48
2018-12-30T10:36:43.562Z,101794.59
2018-12-30T10:39:12.703Z,101805.80
2018-12-30T10:41:41.853Z,101810.77
2018-12-30T10:44:10.983Z,101805.14
2018-12-30T10:46:40.124Z,101805.29
2018-12-30T10:49:09.265Z,101795.55
2018-12-30T10:51:38.408Z,101785.32
2018-12-30T10:54:07.542Z,101784.81
2018-12-30T10:56:36.685Z,101788.45
2018-12-30T10:59:05.816Z,101784.98
2018-12-30T11:01:34.970Z,101777.70
2018-12-30T11:04:04.092Z,101774.05
2018-12-30T11:06:33.256Z,101778.17
2018-12-30T11:09:02.392Z,101778.02
2018-12-30T11:11:31.536Z,101779.17
2018-12-30T11:14:00.673Z,101782.28
2018-12-30T11:16:29.818Z,101777.83
2018-12-30T11:18:58.950Z,101782.77
2018-12-30T11:21:28.086Z,101790.36
2018-12-30T11:23:57.215Z,101788.56
2018-12-30T11:26:26.372Z,101794.48
2018-12-30T11:28:55.499Z,101789.19
2018-12-30T11:31:24.641Z,101792.15
2018-12-30T11:33:53.787Z,101795.77
2018-12-30T11:36:22.919Z,101794.10
2018-12-30T11:38:52.065Z,101794.94
2018-12-30T11:41:21.214Z,101793.29
2018-12-30T11:43:50.362Z,101790.47
2018-12-30T11:46:19.506Z,101789.63
2018-12-30T11:48:48.647Z,101780.23
2018-12-30T11:51:17.797Z,101772.94
2018-12-30T11:53:46.940Z,101778.22
2018-12-30T11:56:16.092Z,101773.59
2018-12-30T11:58:45.221Z,101776.22
2018-12-30T12:01:14.371Z,101772.25
2018-12-30T12:03:43.513Z,101763.48
2018-12-30T12:06:12.650Z,101756.86
2018-12-30T12:08:41.788Z,101757.52
2018-12-30T12:11:10.933Z,101754.87
2018-12-30T12:13:40.074Z,101759.14
2018-12-30T12:16:09.213Z,101754.34
2018-12-30T12:18:38.363Z,101753.05
2018-12-30T12:21:07.492Z,101745.76
2018-12-30T12:23:36.637Z,101737.80
2018-12-30T12:26:05.771Z,101728.25
2018-12-30T12:28:34.914Z,101731.87
2018-12-30T12:31:04.046Z,101733.34
2018-12-30T12:33:33.200Z,101733.81
2018-12-30T12:36:02.333Z,101724.56
2018-12-30T12:38:31.488Z,101718.77
2018-12-30T12:41:00.612Z,101715.47
2018-12-30T12:43:29.757Z,101715.63
2018-12-30T12:45:58.891Z,101721.56
2018-12-30T12:48:28.046Z,101725.52
2018-12-30T12:50:57.173Z,101716.45
2018-12-30T12:53:26.310Z,101711.31
2018-12-30T12:55:55.441Z,101709.96
2018-12-30T12:58:24.590Z,101710.28
2018-12-30T13:00:53.717Z,101719.05
2018-12-30T13:03:22.858Z,101718.89
2018-12-30T13:05:51.987Z,101721.17
2018-12-30T13:08:21.157Z,101727.47
2018-12-30T13:10:50.276Z,101732.05
2018-12-30T13:13:19.416Z,101730.40
2018-12-30T13:15:48.553Z,101731.40
2018-12-30T13:18:17.705Z,101725.11
2018-12-30T13:20:46.841Z,101721.50
2018-12-30T13:23:16.008Z,101719.98
2018-12-30T13:25:45.134Z,101723.47
2018-12-30T13:28:14.286Z,101730.70
2018-12-30T13:30:43.420Z,101721.78
2018-12-30T13:33:12.573Z,101726.23
2018-12-30T13:35:43.462Z,101722.11
2018-12-30T13:38:12.589Z,101719.14
2018-12-30T13:40:41.722Z,101713.66
2018-12-30T13:43:10.892Z,101713.33
2018-12-30T13:45:40.036Z,101732.17
2018-12-30T13:48:09.179Z,101737.61
2018-12-30T13:50:38.312Z,101739.79
2018-12-30T13:53:07.459Z,101736.80
2018-12-30T13:55:36.596Z,101731.19
2018-12-30T13:58:05.742Z,101735.81
2018-12-30T14:00:35.015Z,101734.83
2018-12-30T14:03:04.265Z,101737.95
2018-12-30T14:05:33.407Z,101749.52
2018-12-30T14:08:02.565Z,101757.44
2018-12-30T14:10:31.697Z,101748.83
2018-12-30T14:13:01.697Z,101750.33
2018-12-30T14:15:30.840Z,101746.02
2018-12-30T14:17:59.986Z,101746.86
2018-12-30T14:20:29.115Z,101757.89
2018-12-30T14:22:58.278Z,101760.54
2018-12-30T14:25:27.411Z,101766.17
2018-12-30T14:27:56.534Z,101767.14
2018-12-30T14:30:25.689Z,101775.12
2018-12-30T14:32:54.820Z,101772.61
2018-12-30T14:35:23.969Z,101781.52
2018-12-30T14:37:53.106Z,101785.81
2018-12-30T14:40:22.252Z,101790.78
2018-12-30T14:42:51.381Z,101792.42
2018-12-30T14:45:20.533Z,101799.86
2018-12-30T14:47:49.653Z,101810.77
2018-12-30T14:50:18.796Z,101805.31
2018-12-30T14:52:47.924Z,101806.97
2018-12-30T14:55:17.061Z,101805.34
2018-12-30T14:57:46.199Z,101810.28
2018-12-30T15:00:15.421Z,101817.91
2018-12-30T15:02:44.550Z,101815.59
2018-12-30T15:05:13.700Z,101816.09
2018-12-30T15:07:42.823Z,101815.12
2018-12-30T15:10:11.983Z,101804.19
2018-12-30T15:12:41.204Z,101802.72
2018-12-30T15:15:10.346Z,101796.28
2018-12-30T15:17:39.480Z,101786.02
2018-12-30T15:20:08.895Z,101784.36
2018-12-30T15:22:38.032Z,101781.07
2018-12-30T15:25:11.653Z,101791.83
2018-12-30T15:27:38.044Z,101798.77
2018-12-30T15:30:09.104Z,101800.93
2018-12-30T15:32:38.252Z,101800.58
2018-12-30T15:35:07.788Z,101809.66
2018-12-30T15:37:36.915Z,101825.20
2018-12-30T15:40:06.734Z,101834.13
2018-12-30T15:42:35.889Z,101842.90
2018-12-30T15:45:06.834Z,101835.30
2018-12-30T15:47:36.004Z,101829.51
2018-12-30T15:50:07.723Z,101822.23
2018-12-30T15:52:36.854Z,101815.28
2018-12-30T15:55:06.087Z,101810.34
2018-12-30T15:57:35.292Z,101810.00
2018-12-30T16:00:06.167Z,101802.74
2018-12-30T16:02:35.307Z,101803.55
2018-12-30T16:05:04.793Z,101799.59
2018-12-30T16:07:33.927Z,101792.51
2018-12-30T16:10:03.456Z,101795.96
2018-12-30T16:12:32.611Z,101792.19
2018-12-30T16:15:01.742Z,101793.17
2018-12-30T16:17:30.889Z,101788.23
2018-12-30T16:20:00.039Z,101772.36
2018-12-30T16:22:29.176Z,101766.39
2018-12-30T16:24:58.310Z,101756.34
2018-12-30T16:27:27.486Z,101763.11
2018-12-30T16:29:56.616Z,101768.25
2018-12-30T16:32:25.775Z,101766.61
2018-12-30T16:34:54.900Z,101775.37
2018-12-30T16:37:24.428Z,101777.66
2018-12-30T16:39:53.559Z,101787.44
2018-12-30T16:42:22.705Z,101787.77
2018-12-30T16:44:51.838Z,101791.23
2018-12-30T16:47:20.995Z,101785.80
2018-12-30T16:49:50.130Z,101777.19
2018-12-30T16:52:19.283Z,101781.02
2018-12-30T16:54:48.409Z,101768.79
2018-12-30T16:57:17.570Z,101780.00
2018-12-30T16:59:46.696Z,101780.69
2018-12-30T17:02:15.841Z,101786.13
2018-12-30T17:04:44.977Z,101790.30
2018-12-30T17:07:14.132Z,101793.27
2018-12-30T17:09:43.329Z,101792.10
2018-12-30T17:12:12.511Z,101794.91
2018-12-30T17:14:41.653Z,101796.57
2018-12-30T17:17:10.802Z,101796.58
2018-12-30T17:19:39.952Z,101791.30
2018-12-30T17:22:09.112Z,101790.64
2018-12-30T17:24:38.263Z,101790.00
2018-12-30T17:27:07.429Z,101785.86
2018-12-30T17:29:36.582Z,101792.29
2018-12-30T17:32:05.880Z,101796.58
2018-12-30T17:34:35.029Z,101798.91
2018-12-30T17:37:04.191Z,101790.32
2018-12-30T17:39:33.325Z,101786.53
2018-12-30T17:42:02.478Z,101779.92
2018-12-30T17:44:31.621Z,101776.45
2018-12-30T17:47:00.762Z,101777.62
2018-12-30T17:49:29.907Z,101777.27
2018-12-30T17:51:59.050Z,101776.79
2018-12-30T17:54:28.195Z,101772.51
2018-12-30T17:56:57.329Z,101771.55
2018-12-30T17:59:26.473Z,101777.30
2018-12-30T18:01:55.604Z,101777.48
2018-12-30T18:04:24.768Z,101771.53
2018-12-30T18:06:53.906Z,101772.55
2018-12-30T18:09:23.056Z,101774.20
2018-12-30T18:11:52.191Z,101782.80
2018-12-30T18:14:21.335Z,101787.56
2018-12-30T18:16:50.486Z,101785.78
2018-12-30T18:19:19.661Z,101786.09
2018-12-30T18:21:48.801Z,101784.81
2018-12-30T18:24:17.945Z,101791.41
2018-12-30T18:26:47.099Z,101798.17
2018-12-30T18:29:16.245Z,101793.55
2018-12-30T18:31:45.388Z,101788.77
2018-12-30T18:34:14.525Z,101790.77
2018-12-30T18:36:43.673Z,101796.04
2018-12-30T18:39:12.820Z,101797.21
2018-12-30T18:41:41.961Z,101803.64
2018-12-30T18:44:11.114Z,101799.02
2018-12-30T18:46:40.252Z,101796.04
2018-12-30T18:49:09.413Z,101788.12
2018-12-30T18:51:38.553Z,101791.27
2018-12-30T18:54:07.696Z,101788.30
2018-12-30T18:56:36.836Z,101791.92
2018-12-30T18:59:05.998Z,101787.17
2018-12-30T19:01:35.135Z,101787.81
2018-12-30T19:04:04.312Z,101784.17
2018-12-30T19:06:33.449Z,101785.17
2018-12-30T19:09:02.693Z,101786.98
2018-12-30T19:11:31.844Z,101786.17
2018-12-30T19:14:00.997Z,101779.25
2018-12-30T19:16:30.154Z,101782.87
2018-12-30T19:18:59.317Z,101791.65
2018-12-30T19:21:28.450Z,101797.73
2018-12-30T19:23:57.616Z,101796.09
2018-12-30T19:26:26.757Z,101801.87
2018-12-30T19:28:55.911Z,101807.66
2018-12-30T19:31:25.052Z,101808.48
2018-12-30T19:33:54.209Z,101805.04
2018-12-30T19:36:23.353Z,101795.44
2018-12-30T19:38:52.502Z,101792.14
2018-12-30T19:41:21.638Z,101790.50
2018-12-30T19:43:50.803Z,101792.80
2018-12-30T19:46:19.926Z,101791.84
2018-12-30T19:48:49.087Z,101798.08
2018-12-30T19:51:18.216Z,101795.63
2018-12-30T19:53:47.367Z,101804.54
2018-12-30T19:56:21.920Z,101805.05
2018-12-30T19:58:47.377Z,101798.77
2018-12-30T20:01:16.518Z,101803.88
2018-12-30T20:03:45.648Z,101808.02
2018-12-30T20:06:14.823Z,101796.48
2018-12-30T20:08:43.963Z,101798.63
2018-12-30T20:11:13.112Z,101800.09
2018-12-30T20:13:42.250Z,101790.21
2018-12-30T20:16:11.403Z,101796.31
2018-12-30T20:18:40.542Z,101802.43
2018-12-30T20:21:09.707Z,101801.28
2018-12-30T20:23:38.828Z,101790.73
2018-12-30T20:26:08.066Z,101789.72
2018-12-30T20:28:37.196Z,101785.28
2018-12-30T20:31:06.341Z,101796.16
2018-12-30T20:33:35.491Z,101793.04
2018-12-30T20:36:04.637Z,101783.30
2018-12-30T20:38:33.777Z,101782.30
2018-12-30T20:41:02.916Z,101785.11
2018-12-30T20:43:32.045Z,101780.16
2018-12-30T20:46:01.179Z,101779.17
2018-12-30T20:48:30.308Z,101774.73
2018-12-30T20:50:59.442Z,101769.75
2018-12-30T20:53:28.591Z,101766.80
2018-12-30T20:55:57.729Z,101761.03
2018-12-30T20:58:26.862Z,101758.72
2018-12-30T21:00:56.033Z,101746.83
2018-12-30T21:03:25.177Z,101746.17
2018-12-30T21:05:54.329Z,101749.28
2018-12-30T21:08:23.527Z,101746.50
2018-12-30T21:10:52.678Z,101758.70
2018-12-30T21:13:21.804Z,101755.09
2018-12-30T21:15:50.983Z,101753.44
2018-12-30T21:18:20.099Z,101751.47
2018-12-30T21:20:49.253Z,101749.31
2018-12-30T21:23:18.386Z,101744.38
2018-12-30T21:25:47.548Z,101744.38
2018-12-30T21:28:16.680Z,101742.57
2018-12-30T21:30:45.851Z,101742.58
2018-12-30T21:33:14.992Z,101739.94
2018-12-30T21:35:44.154Z,101741.89
2018-12-30T21:38:13.281Z,101740.09
2018-12-30T21:40:42.432Z,101746.19
2018-12-30T21:43:11.550Z,101743.26
2018-12-30T21:45:40.707Z,101738.14
2018-12-30T21:48:09.830Z,101735.83
2018-12-30T21:50:38.971Z,101730.20
2018-12-30T21:53:08.089Z,101730.53
2018-12-30T21:55:37.243Z,101730.53
2018-12-30T21:58:06.377Z,101728.89
2018-12-30T22:00:35.522Z,101718.48
2018-12-30T22:03:04.663Z,101713.38
2018-12-30T22:05:33.817Z,101712.55
2018-12-30T22:08:02.927Z,101715.55
2018-12-30T22:10:32.081Z,101716.54
2018-12-30T22:13:01.205Z,101719.53
2018-12-30T22:15:30.356Z,101718.71
2018-12-30T22:17:59.500Z,101720.03
2018-12-30T22:20:28.810Z,101718.37
2018-12-30T22:22:57.943Z,101718.22
2018-12-30T22:25:27.075Z,101720.69
2018-12-30T22:27:56.219Z,101720.02
2018-12-30T22:30:25.355Z,101731.09
2018-12-30T22:32:54.502Z,101727.96
2018-12-30T22:35:23.628Z,101722.82
2018-12-30T22:37:52.773Z,101722.20
2018-12-30T22:40:21.891Z,101723.17
2018-12-30T22:42:51.065Z,101724.80
2018-12-30T22:45:20.206Z,101722.66
2018-12-30T22:47:49.343Z,101714.39
2018-12-30T22:50:18.485Z,101717.55
2018-12-30T22:52:48.948Z,101721.50
2018-12-30T22:55:18.234Z,101721.52
2018-12-30T22:57:47.379Z,101721.67
2018-12-30T23:00:26.837Z,101704.85
2018-12-30T23:02:55.994Z,101692.48
2018-12-30T23:05:25.179Z,101690.02
2018-12-30T23:07:54.335Z,101700.23
2018-12-30T23:10:23.463Z,101701.39
2018-12-30T23:12:52.624Z,101704.20
2018-12-30T23:15:21.742Z,101698.59
2018-12-30T23:17:50.881Z,101694.63
2018-12-30T23:20:20.019Z,101693.48
2018-12-30T23:22:49.153Z,101689.84
2018-12-30T23:25:18.285Z,101700.56
2018-12-30T23:28:06.862Z,101698.77
2018-12-30T23:30:36.011Z,101694.32
2018-12-30T23:33:05.161Z,101696.14
2018-12-30T23:35:34.305Z,101703.22
2018-12-30T23:38:03.451Z,101705.20
2018-12-30T23:40:32.589Z,101705.36
2018-12-30T23:43:01.726Z,101702.89
2018-12-30T23:45:30.852Z,101704.03
2018-12-30T23:48:00.014Z,101701.41
2018-12-30T23:50:29.151Z,101698.27
2018-12-30T23:52:58.304Z,101702.36
2018-12-30T23:55:27.447Z,101702.39
2018-12-30T23:57:56.621Z,101702.88
